sensor_id;sensor_type;location;lat;lon;timestamp;pressure;altitude;pressure_sealevel;temperature;humidity
53647;BME280;39550;52.230;5.194;2023-04-27T00:01:14;101897.34;;;6.66;69.77
53647;BME280;39550;52.230;5.194;2023-04-27T00:03:40;102026.91;;;7.44;70.25
53647;BME280;39550;52.230;5.194;2023-04-27T00:06:07;102038.97;;;7.46;69.92
53647;BME280;39550;52.230;5.194;2023-04-27T00:08:33;102031.03;;;7.40;70.16
53647;BME280;39550;52.230;5.194;2023-04-27T00:10:59;101963.56;;;6.99;70.12
53647;BME280;39550;52.230;5.194;2023-04-27T00:13:25;101972.31;;;7.04;69.54
53647;BME280;39550;52.230;5.194;2023-04-27T00:15:51;101931.34;;;6.83;69.57
53647;BME280;39550;52.230;5.194;2023-04-27T00:18:16;101982.69;;;7.07;69.54
53647;BME280;39550;52.230;5.194;2023-04-27T00:20:41;101976.53;;;7.02;69.77
53647;BME280;39550;52.230;5.194;2023-04-27T00:23:07;102043.97;;;7.43;69.30
53647;BME280;39550;52.230;5.194;2023-04-27T00:25:32;102006.47;;;7.24;69.70
53647;BME280;39550;52.230;5.194;2023-04-27T00:27:58;102013.28;;;7.24;69.30
53647;BME280;39550;52.230;5.194;2023-04-27T00:30:24;101946.78;;;6.85;69.91
53647;BME280;39550;52.230;5.194;2023-04-27T00:32:49;101947.69;;;6.87;69.19
53647;BME280;39550;52.230;5.194;2023-04-27T00:35:15;101987.97;;;7.10;69.61
53647;BME280;39550;52.230;5.194;2023-04-27T00:37:40;102000.09;;;7.14;69.88
53647;BME280;39550;52.230;5.194;2023-04-27T00:40:06;102029.97;;;7.35;69.60
53647;BME280;39550;52.230;5.194;2023-04-27T00:42:33;102033.47;;;7.37;69.43
53647;BME280;39550;52.230;5.194;2023-04-27T00:44:58;102033.47;;;7.37;69.56
53647;BME280;39550;52.230;5.194;2023-04-27T00:47:24;102039.22;;;7.31;69.37
53647;BME280;39550;52.230;5.194;2023-04-27T00:49:50;102013.72;;;7.13;69.59
53647;BME280;39550;52.230;5.194;2023-04-27T00:52:16;101974.78;;;7.01;69.21
53647;BME280;39550;52.230;5.194;2023-04-27T00:54:41;102017.41;;;7.20;69.31
53647;BME280;39550;52.230;5.194;2023-04-27T00:57:07;101989.59;;;7.08;69.28
53647;BME280;39550;52.230;5.194;2023-04-27T00:59:33;101993.09;;;7.10;69.26
53647;BME280;39550;52.230;5.194;2023-04-27T01:01:58;101979.56;;;6.93;69.52
53647;BME280;39550;52.230;5.194;2023-04-27T01:04:24;102001.59;;;7.09;69.24
53647;BME280;39550;52.230;5.194;2023-04-27T01:06:49;101993.09;;;7.10;69.16
53647;BME280;39550;52.230;5.194;2023-04-27T01:09:16;101951.03;;;6.84;69.57
53647;BME280;39550;52.230;5.194;2023-04-27T01:11:44;101998.34;;;7.13;69.44
53647;BME280;39550;52.230;5.194;2023-04-27T01:14:10;102005.09;;;7.11;69.31
53647;BME280;39550;52.230;5.194;2023-04-27T01:16:35;101983.03;;;6.94;68.84
53647;BME280;39550;52.230;5.194;2023-04-27T01:19:01;102042.44;;;7.26;69.63
53647;BME280;39550;52.230;5.194;2023-04-27T01:21:26;102036.47;;;7.27;69.35
53647;BME280;39550;52.230;5.194;2023-04-27T01:23:52;102034.34;;;7.16;69.28
53647;BME280;39550;52.230;5.194;2023-04-27T01:26:18;102036.84;;;7.15;69.59
53647;BME280;39550;52.230;5.194;2023-04-27T01:28:43;101984.13;;;6.79;69.02
53647;BME280;39550;52.230;5.194;2023-04-27T01:31:09;101991.47;;;6.91;69.77
53647;BME280;39550;52.230;5.194;2023-04-27T01:33:39;102033.59;;;7.19;69.21
53647;BME280;39550;52.230;5.194;2023-04-27T01:36:06;102004.84;;;7.05;69.27
53647;BME280;39550;52.230;5.194;2023-04-27T01:38:32;102033.66;;;7.21;69.20
53647;BME280;39550;52.230;5.194;2023-04-27T01:40:57;102022.22;;;7.12;68.75
53647;BME280;39550;52.230;5.194;2023-04-27T01:43:27;102019.84;;;7.17;69.47
53647;BME280;39550;52.230;5.194;2023-04-27T01:45:53;102018.84;;;7.13;69.29
53647;BME280;39550;52.230;5.194;2023-04-27T01:48:18;101987.53;;;6.99;69.52
53647;BME280;39550;52.230;5.194;2023-04-27T01:50:43;101935.09;;;6.70;69.29
53647;BME280;39550;52.230;5.194;2023-04-27T01:53:09;101999.72;;;7.05;69.38
53647;BME280;39550;52.230;5.194;2023-04-27T01:55:35;102016.28;;;7.13;69.70
53647;BME280;39550;52.230;5.194;2023-04-27T01:58:00;101960.25;;;6.80;69.18
53647;BME280;39550;52.230;5.194;2023-04-27T02:00:25;101997.91;;;7.03;69.03
53647;BME280;39550;52.230;5.194;2023-04-27T02:02:51;101998.69;;;7.02;68.71
53647;BME280;39550;52.230;5.194;2023-04-27T02:05:18;101965.63;;;6.87;69.15
53647;BME280;39550;52.230;5.194;2023-04-27T02:07:43;101921.78;;;6.58;68.67
53647;BME280;39550;52.230;5.194;2023-04-27T02:10:09;101918.31;;;6.57;69.12
53647;BME280;39550;52.230;5.194;2023-04-27T02:12:35;101955.59;;;6.70;68.65
53647;BME280;39550;52.230;5.194;2023-04-27T02:15:00;102014.34;;;7.08;68.61
53647;BME280;39550;52.230;5.194;2023-04-27T02:17:27;101995.97;;;6.97;68.99
53647;BME280;39550;52.230;5.194;2023-04-27T02:19:53;101953.81;;;6.69;69.13
53647;BME280;39550;52.230;5.194;2023-04-27T02:22:18;101998.66;;;7.00;69.29
53647;BME280;39550;52.230;5.194;2023-04-27T02:24:43;101972.41;;;6.85;69.30
53647;BME280;39550;52.230;5.194;2023-04-27T02:27:09;101983.56;;;6.87;69.00
53647;BME280;39550;52.230;5.194;2023-04-27T02:29:34;101948.59;;;6.66;69.21
53647;BME280;39550;52.230;5.194;2023-04-27T02:32:04;101937.38;;;6.64;69.27
53647;BME280;39550;52.230;5.194;2023-04-27T02:34:29;101991.66;;;6.96;68.95
53647;BME280;39550;52.230;5.194;2023-04-27T02:36:55;101919.06;;;6.55;68.95
53647;BME280;39550;52.230;5.194;2023-04-27T02:39:20;101943.47;;;6.66;68.39
53647;BME280;39550;52.230;5.194;2023-04-27T02:41:45;101996.09;;;7.00;69.08
53647;BME280;39550;52.230;5.194;2023-04-27T02:44:11;101986.47;;;6.94;69.19
53647;BME280;39550;52.230;5.194;2023-04-27T02:46:36;101981.34;;;6.94;69.24
53647;BME280;39550;52.230;5.194;2023-04-27T02:49:01;101954.22;;;6.78;68.58
53647;BME280;39550;52.230;5.194;2023-04-27T02:51:27;101959.25;;;6.77;68.55
53647;BME280;39550;52.230;5.194;2023-04-27T02:53:52;101967.94;;;6.80;68.95
53647;BME280;39550;52.230;5.194;2023-04-27T02:56:18;101962.09;;;6.83;69.13
53647;BME280;39550;52.230;5.194;2023-04-27T02:58:43;101951.38;;;6.72;68.70
53647;BME280;39550;52.230;5.194;2023-04-27T03:01:09;101968.75;;;6.79;68.44
53647;BME280;39550;52.230;5.194;2023-04-27T03:03:34;101993.00;;;6.88;68.93
53647;BME280;39550;52.230;5.194;2023-04-27T03:06:00;101998.25;;;6.91;68.88
53647;BME280;39550;52.230;5.194;2023-04-27T03:08:25;101978.19;;;6.80;68.90
53647;BME280;39550;52.230;5.194;2023-04-27T03:10:50;101968.50;;;6.73;68.56
53647;BME280;39550;52.230;5.194;2023-04-27T03:13:15;101990.22;;;6.81;69.02
53647;BME280;39550;52.230;5.194;2023-04-27T03:15:41;101988.31;;;6.77;68.91
53647;BME280;39550;52.230;5.194;2023-04-27T03:18:06;101980.38;;;6.71;68.49
53647;BME280;39550;52.230;5.194;2023-04-27T03:20:32;101968.06;;;6.62;68.67
53647;BME280;39550;52.230;5.194;2023-04-27T03:22:57;101996.94;;;6.79;68.95
53647;BME280;39550;52.230;5.194;2023-04-27T03:25:22;102014.31;;;6.87;69.05
53647;BME280;39550;52.230;5.194;2023-04-27T03:27:48;101944.44;;;6.48;68.80
53647;BME280;39550;52.230;5.194;2023-04-27T03:30:13;101923.25;;;6.32;68.67
53647;BME280;39550;52.230;5.194;2023-04-27T03:32:39;101995.06;;;6.75;68.70
53647;BME280;39550;52.230;5.194;2023-04-27T03:35:04;101998.56;;;6.77;68.95
53647;BME280;39550;52.230;5.194;2023-04-27T03:37:30;101963.56;;;6.57;68.90
53647;BME280;39550;52.230;5.194;2023-04-27T03:39:55;101976.66;;;6.64;68.94
53647;BME280;39550;52.230;5.194;2023-04-27T03:42:21;101972.03;;;6.56;69.57
53647;BME280;39550;52.230;5.194;2023-04-27T03:44:46;101979.03;;;6.60;69.11
53647;BME280;39550;52.230;5.194;2023-04-27T03:47:11;101990.38;;;6.65;68.67
53647;BME280;39550;52.230;5.194;2023-04-27T03:49:37;102007.81;;;6.74;68.72
53647;BME280;39550;52.230;5.194;2023-04-27T03:52:03;101968.56;;;6.54;68.77
53647;BME280;39550;52.230;5.194;2023-04-27T03:54:30;101999.94;;;6.69;68.62
53647;BME280;39550;52.230;5.194;2023-04-27T03:56:55;101987.53;;;6.59;68.77
53647;BME280;39550;52.230;5.194;2023-04-27T03:59:21;101924.38;;;6.19;68.55
53647;BME280;39550;52.230;5.194;2023-04-27T04:01:46;102023.97;;;6.73;68.49
53647;BME280;39550;52.230;5.194;2023-04-27T04:04:11;102015.38;;;6.71;68.54
53647;BME280;39550;52.230;5.194;2023-04-27T04:06:36;101983.75;;;6.51;68.70
53647;BME280;39550;52.230;5.194;2023-04-27T04:09:02;102008.41;;;6.68;68.55
53647;BME280;39550;52.230;5.194;2023-04-27T04:11:28;102012.63;;;6.66;68.86
53647;BME280;39550;52.230;5.194;2023-04-27T04:13:53;101995.28;;;6.60;68.56
53647;BME280;39550;52.230;5.194;2023-04-27T04:16:19;101993.31;;;6.55;68.42
53647;BME280;39550;52.230;5.194;2023-04-27T04:18:44;101972.31;;;6.42;68.46
53647;BME280;39550;52.230;5.194;2023-04-27T04:21:09;101966.03;;;6.34;68.67
53647;BME280;39550;52.230;5.194;2023-04-27T04:23:35;101963.31;;;6.31;68.61
53647;BME280;39550;52.230;5.194;2023-04-27T04:26:01;102022.03;;;6.67;68.42
53647;BME280;39550;52.230;5.194;2023-04-27T04:28:27;101948.31;;;6.19;68.69
53647;BME280;39550;52.230;5.194;2023-04-27T04:30:52;101937.84;;;6.14;68.73
53647;BME280;39550;52.230;5.194;2023-04-27T04:33:17;102028.78;;;6.65;69.02
53647;BME280;39550;52.230;5.194;2023-04-27T04:35:43;102019.91;;;6.57;68.68
53647;BME280;39550;52.230;5.194;2023-04-27T04:38:09;102030.56;;;6.66;68.70
53647;BME280;39550;52.230;5.194;2023-04-27T04:40:34;101968.09;;;6.23;68.81
53647;BME280;39550;52.230;5.194;2023-04-27T04:43:01;102018.81;;;6.52;68.85
53647;BME280;39550;52.230;5.194;2023-04-27T04:45:27;102017.94;;;6.51;68.41
53647;BME280;39550;52.230;5.194;2023-04-27T04:47:52;102016.94;;;6.47;69.08
53647;BME280;39550;52.230;5.194;2023-04-27T04:50:18;101974.75;;;6.20;68.52
53647;BME280;39550;52.230;5.194;2023-04-27T04:52:43;102014.25;;;6.44;68.03
53647;BME280;39550;52.230;5.194;2023-04-27T04:55:09;101952.94;;;6.08;67.88
53647;BME280;39550;52.230;5.194;2023-04-27T04:57:35;102024.75;;;6.51;68.54
53647;BME280;39550;52.230;5.194;2023-04-27T05:00:00;102009.00;;;6.41;68.59
53647;BME280;39550;52.230;5.194;2023-04-27T05:02:26;101988.84;;;6.29;68.33
53647;BME280;39550;52.230;5.194;2023-04-27T05:04:51;101952.22;;;6.11;68.30
53647;BME280;39550;52.230;5.194;2023-04-27T05:07:16;102011.00;;;6.48;68.12
53647;BME280;39550;52.230;5.194;2023-04-27T05:09:42;101989.56;;;6.27;68.22
53647;BME280;39550;52.230;5.194;2023-04-27T05:12:07;101988.78;;;6.28;68.17
53647;BME280;39550;52.230;5.194;2023-04-27T05:14:33;101958.19;;;6.11;68.38
53647;BME280;39550;52.230;5.194;2023-04-27T05:16:58;102024.59;;;6.47;68.06
53647;BME280;39550;52.230;5.194;2023-04-27T05:19:24;102028.06;;;6.48;68.58
53647;BME280;39550;52.230;5.194;2023-04-27T05:21:49;102052.38;;;6.58;68.15
53647;BME280;39550;52.230;5.194;2023-04-27T05:24:15;101970.31;;;6.16;67.84
53647;BME280;39550;52.230;5.194;2023-04-27T05:26:43;102011.19;;;6.34;68.24
53647;BME280;39550;52.230;5.194;2023-04-27T05:29:09;102014.66;;;6.34;67.66
53647;BME280;39550;52.230;5.194;2023-04-27T05:31:35;102015.47;;;6.33;67.73
53647;BME280;39550;52.230;5.194;2023-04-27T05:34:00;102040.25;;;6.54;68.41
53647;BME280;39550;52.230;5.194;2023-04-27T05:36:25;102053.38;;;6.61;67.81
53647;BME280;39550;52.230;5.194;2023-04-27T05:38:53;102040.25;;;6.54;67.89
53647;BME280;39550;52.230;5.194;2023-04-27T05:41:18;102052.66;;;6.64;68.00
53647;BME280;39550;52.230;5.194;2023-04-27T05:43:43;102012.47;;;6.43;67.97
53647;BME280;39550;52.230;5.194;2023-04-27T05:46:12;102028.94;;;6.48;67.98
53647;BME280;39550;52.230;5.194;2023-04-27T05:48:37;102058.78;;;6.68;68.07
53647;BME280;39550;52.230;5.194;2023-04-27T05:51:03;102051.03;;;6.66;67.58
53647;BME280;39550;52.230;5.194;2023-04-27T05:53:29;102029.59;;;6.44;68.18
53647;BME280;39550;52.230;5.194;2023-04-27T05:55:58;102032.28;;;6.47;68.24
53647;BME280;39550;52.230;5.194;2023-04-27T05:58:25;102024.19;;;6.38;67.87
53647;BME280;39550;52.230;5.194;2023-04-27T06:00:50;102047.28;;;6.58;67.95
53647;BME280;39550;52.230;5.194;2023-04-27T06:03:16;102048.25;;;6.61;67.83
53647;BME280;39550;52.230;5.194;2023-04-27T06:05:41;102021.13;;;6.45;67.79
53647;BME280;39550;52.230;5.194;2023-04-27T06:08:07;102005.34;;;6.36;67.97
53647;BME280;39550;52.230;5.194;2023-04-27T06:10:32;102045.75;;;6.63;67.64
53647;BME280;39550;52.230;5.194;2023-04-27T06:12:58;102010.94;;;6.47;67.70
53647;BME280;39550;52.230;5.194;2023-04-27T06:15:23;102007.38;;;6.43;68.10
53647;BME280;39550;52.230;5.194;2023-04-27T06:17:49;101982.72;;;6.26;67.78
53647;BME280;39550;52.230;5.194;2023-04-27T06:20:14;101988.09;;;6.32;68.11
53647;BME280;39550;52.230;5.194;2023-04-27T06:22:40;101991.22;;;6.25;68.18
53647;BME280;39550;52.230;5.194;2023-04-27T06:25:05;102034.41;;;6.56;68.20
53647;BME280;39550;52.230;5.194;2023-04-27T06:27:31;102020.16;;;6.43;68.30
53647;BME280;39550;52.230;5.194;2023-04-27T06:29:57;102033.25;;;6.50;68.42
53647;BME280;39550;52.230;5.194;2023-04-27T06:32:22;102038.75;;;6.59;67.65
53647;BME280;39550;52.230;5.194;2023-04-27T06:34:48;102051.16;;;6.69;67.85
53647;BME280;39550;52.230;5.194;2023-04-27T06:37:14;102032.28;;;6.67;67.17
53647;BME280;39550;52.230;5.194;2023-04-27T06:39:41;102020.94;;;6.81;67.06
53647;BME280;39550;52.230;5.194;2023-04-27T06:42:07;101994.19;;;6.75;66.66
53647;BME280;39550;52.230;5.194;2023-04-27T06:44:32;101971.78;;;6.50;66.71
53647;BME280;39550;52.230;5.194;2023-04-27T06:46:58;102030.06;;;6.75;66.85
53647;BME280;39550;52.230;5.194;2023-04-27T06:49:23;102037.56;;;6.70;67.55
53647;BME280;39550;52.230;5.194;2023-04-27T06:51:49;102030.41;;;6.63;67.61
53647;BME280;39550;52.230;5.194;2023-04-27T06:54:15;102005.69;;;6.44;67.72
53647;BME280;39550;52.230;5.194;2023-04-27T06:56:41;102009.00;;;6.41;68.25
53647;BME280;39550;52.230;5.194;2023-04-27T06:59:07;102032.81;;;6.60;68.35
53647;BME280;39550;52.230;5.194;2023-04-27T07:01:32;102022.41;;;6.55;67.91
53647;BME280;39550;52.230;5.194;2023-04-27T07:03:58;102052.66;;;6.64;68.20
53647;BME280;39550;52.230;5.194;2023-04-27T07:06:23;101967.88;;;6.19;68.32
53647;BME280;39550;52.230;5.194;2023-04-27T07:08:50;102000.28;;;6.38;67.96
53647;BME280;39550;52.230;5.194;2023-04-27T07:11:15;101970.84;;;6.28;67.37
53647;BME280;39550;52.230;5.194;2023-04-27T07:13:41;102042.41;;;6.64;67.59
53647;BME280;39550;52.230;5.194;2023-04-27T07:16:06;102028.44;;;6.57;67.44
53647;BME280;39550;52.230;5.194;2023-04-27T07:18:32;102026.56;;;6.53;67.29
53647;BME280;39550;52.230;5.194;2023-04-27T07:20:57;102045.09;;;6.67;67.35
53647;BME280;39550;52.230;5.194;2023-04-27T07:23:23;102039.53;;;6.56;67.61
53647;BME280;39550;52.230;5.194;2023-04-27T07:25:48;102062.41;;;6.73;67.68
53647;BME280;39550;52.230;5.194;2023-04-27T07:28:14;102039.03;;;6.65;68.22
53647;BME280;39550;52.230;5.194;2023-04-27T07:30:40;101988.34;;;6.38;68.37
53647;BME280;39550;52.230;5.194;2023-04-27T07:33:06;101988.44;;;6.40;68.26
53647;BME280;39550;52.230;5.194;2023-04-27T07:35:32;102006.13;;;6.55;67.60
53647;BME280;39550;52.230;5.194;2023-04-27T07:37:59;102025.28;;;6.63;67.63
53647;BME280;39550;52.230;5.194;2023-04-27T07:40:26;101959.13;;;6.33;67.58
53647;BME280;39550;52.230;5.194;2023-04-27T07:42:51;101967.06;;;6.39;67.55
53647;BME280;39550;52.230;5.194;2023-04-27T07:45:17;102015.19;;;6.66;67.64
53647;BME280;39550;52.230;5.194;2023-04-27T07:47:42;101971.56;;;6.45;67.68
53647;BME280;39550;52.230;5.194;2023-04-27T07:50:08;102028.28;;;6.74;67.86
53647;BME280;39550;52.230;5.194;2023-04-27T07:52:34;102022.94;;;6.68;67.20
53647;BME280;39550;52.230;5.194;2023-04-27T07:55:00;102041.44;;;6.81;67.64
53647;BME280;39550;52.230;5.194;2023-04-27T07:57:26;101978.41;;;6.44;67.26
53647;BME280;39550;52.230;5.194;2023-04-27T07:59:51;102019.47;;;6.67;67.94
53647;BME280;39550;52.230;5.194;2023-04-27T08:02:17;101975.50;;;6.37;67.90
53647;BME280;39550;52.230;5.194;2023-04-27T08:04:43;102015.44;;;6.72;67.35
53647;BME280;39550;52.230;5.194;2023-04-27T08:07:08;102048.59;;;6.89;67.58
53647;BME280;39550;52.230;5.194;2023-04-27T08:09:33;102008.75;;;6.76;66.69
53647;BME280;39550;52.230;5.194;2023-04-27T08:11:58;102054.09;;;6.98;66.84
53647;BME280;39550;52.230;5.194;2023-04-27T08:14:24;102038.31;;;6.89;66.68
53647;BME280;39550;52.230;5.194;2023-04-27T08:16:49;101974.53;;;6.54;66.53
53647;BME280;39550;52.230;5.194;2023-04-27T08:19:17;102031.31;;;6.85;66.94
53647;BME280;39550;52.230;5.194;2023-04-27T08:21:43;101893.13;;;6.06;66.86
53647;BME280;39550;52.230;5.194;2023-04-27T08:24:08;101996.69;;;6.73;67.00
53647;BME280;39550;52.230;5.194;2023-04-27T08:26:34;102061.63;;;7.14;66.66
53647;BME280;39550;52.230;5.194;2023-04-27T08:29:00;101995.34;;;6.81;66.42
53647;BME280;39550;52.230;5.194;2023-04-27T08:31:26;101934.31;;;6.52;66.43
53647;BME280;39550;52.230;5.194;2023-04-27T08:33:52;102046.16;;;7.13;66.95
53647;BME280;39550;52.230;5.194;2023-04-27T08:36:24;101996.25;;;6.84;67.12
53647;BME280;39550;52.230;5.194;2023-04-27T08:38:51;102044.47;;;7.13;66.37
53647;BME280;39550;52.230;5.194;2023-04-27T08:41:22;102011.22;;;6.94;66.31
53647;BME280;39550;52.230;5.194;2023-04-27T08:43:49;102025.34;;;7.05;67.03
53647;BME280;39550;52.230;5.194;2023-04-27T08:46:23;102004.47;;;6.96;67.30
53647;BME280;39550;52.230;5.194;2023-04-27T08:48:52;102042.03;;;7.16;66.92
53647;BME280;39550;52.230;5.194;2023-04-27T08:51:18;102023.84;;;7.10;67.22
53647;BME280;39550;52.230;5.194;2023-04-27T08:53:49;102019.72;;;7.14;63.84
53647;BME280;39550;52.230;5.194;2023-04-27T08:56:16;102027.66;;;7.20;64.25
53647;BME280;39550;52.230;5.194;2023-04-27T08:58:42;102048.47;;;7.28;65.36
53647;BME280;39550;52.230;5.194;2023-04-27T09:01:07;101985.31;;;6.88;65.44
53647;BME280;39550;52.230;5.194;2023-04-27T09:03:33;102049.22;;;7.25;66.03
53647;BME280;39550;52.230;5.194;2023-04-27T09:05:59;102000.06;;;6.93;65.60
53647;BME280;39550;52.230;5.194;2023-04-27T09:08:25;101966.06;;;6.76;66.19
53647;BME280;39550;52.230;5.194;2023-04-27T09:10:51;102010.91;;;7.07;66.29
53647;BME280;39550;52.230;5.194;2023-04-27T09:13:17;101964.59;;;6.81;66.33
53647;BME280;39550;52.230;5.194;2023-04-27T09:15:45;102043.13;;;7.22;65.90
53647;BME280;39550;52.230;5.194;2023-04-27T09:18:21;101987.47;;;6.98;65.61
53647;BME280;39550;52.230;5.194;2023-04-27T09:20:51;102028.91;;;7.30;66.30
53647;BME280;39550;52.230;5.194;2023-04-27T09:23:36;102027.47;;;7.37;66.14
53647;BME280;39550;52.230;5.194;2023-04-27T09:26:05;101926.97;;;6.80;65.72
53647;BME280;39550;52.230;5.194;2023-04-27T09:28:37;101967.31;;;7.07;65.51
53647;BME280;39550;52.230;5.194;2023-04-27T09:31:03;101865.84;;;6.47;66.08
53647;BME280;39550;52.230;5.194;2023-04-27T09:33:31;101926.03;;;6.78;65.49
53647;BME280;39550;52.230;5.194;2023-04-27T09:35:58;101977.94;;;7.16;65.37
53647;BME280;39550;52.230;5.194;2023-04-27T09:38:25;102002.53;;;7.32;66.18
53647;BME280;39550;52.230;5.194;2023-04-27T09:40:52;102033.22;;;7.52;66.33
53647;BME280;39550;52.230;5.194;2023-04-27T09:43:18;101969.56;;;7.21;66.38
53647;BME280;39550;52.230;5.194;2023-04-27T09:45:43;102004.19;;;7.32;66.96
53647;BME280;39550;52.230;5.194;2023-04-27T09:48:10;102020.56;;;7.57;65.66
53647;BME280;39550;52.230;5.194;2023-04-27T09:50:37;102010.31;;;7.57;64.89
53647;BME280;39550;52.230;5.194;2023-04-27T09:53:05;102013.28;;;7.67;65.31
53647;BME280;39550;52.230;5.194;2023-04-27T09:55:54;101981.97;;;7.54;65.50
53647;BME280;39550;52.230;5.194;2023-04-27T10:01:05;101995.16;;;7.63;64.53
53647;BME280;39550;52.230;5.194;2023-04-27T10:04:01;101959.41;;;7.45;64.04
53647;BME280;39550;52.230;5.194;2023-04-27T10:07:02;102013.66;;;7.77;63.84
53647;BME280;39550;52.230;5.194;2023-04-27T10:09:46;101950.78;;;7.43;63.89
53647;BME280;39550;52.230;5.194;2023-04-27T10:12:25;101951.78;;;7.46;65.08
53647;BME280;39550;52.230;5.194;2023-04-27T10:17:18;101979.88;;;7.66;64.92
53647;BME280;39550;52.230;5.194;2023-04-27T10:19:55;102002.59;;;7.79;64.13
53647;BME280;39550;52.230;5.194;2023-04-27T10:22:22;101961.72;;;7.61;64.13
53647;BME280;39550;52.230;5.194;2023-04-27T10:24:49;102007.34;;;7.91;64.27
53647;BME280;39550;52.230;5.194;2023-04-27T10:27:17;101943.50;;;7.54;64.49
53647;BME280;39550;52.230;5.194;2023-04-27T10:29:48;101933.84;;;7.46;63.66
53647;BME280;39550;52.230;5.194;2023-04-27T10:32:19;101968.31;;;7.77;63.93
53647;BME280;39550;52.230;5.194;2023-04-27T10:34:45;101974.22;;;7.75;64.16
53647;BME280;39550;52.230;5.194;2023-04-27T10:37:13;101907.03;;;7.38;63.98
53647;BME280;39550;52.230;5.194;2023-04-27T10:39:40;101948.00;;;7.59;64.65
53647;BME280;39550;52.230;5.194;2023-04-27T10:42:07;101890.31;;;7.27;64.58
53647;BME280;39550;52.230;5.194;2023-04-27T10:44:34;101835.59;;;7.02;64.75
53647;BME280;39550;52.230;5.194;2023-04-27T10:47:11;101905.25;;;7.37;64.43
53647;BME280;39550;52.230;5.194;2023-04-27T10:49:37;101903.63;;;7.39;65.07
53647;BME280;39550;52.230;5.194;2023-04-27T10:52:03;101922.03;;;7.52;64.37
53647;BME280;39550;52.230;5.194;2023-04-27T10:54:29;101976.44;;;7.88;65.03
53647;BME280;39550;52.230;5.194;2023-04-27T10:57:09;101890.94;;;7.42;64.68
53647;BME280;39550;52.230;5.194;2023-04-27T10:59:47;101996.78;;;8.06;64.51
53647;BME280;39550;52.230;5.194;2023-04-27T11:02:14;101972.41;;;7.95;64.17
53647;BME280;39550;52.230;5.194;2023-04-27T11:04:39;101990.00;;;8.08;65.06
53647;BME280;39550;52.230;5.194;2023-04-27T11:07:06;101901.06;;;7.62;64.37
53647;BME280;39550;52.230;5.194;2023-04-27T11:09:35;101960.38;;;7.94;64.29
53647;BME280;39550;52.230;5.194;2023-04-27T11:12:06;101981.63;;;8.14;64.04
53647;BME280;39550;52.230;5.194;2023-04-27T11:14:34;101860.31;;;7.47;63.89
53647;BME280;39550;52.230;5.194;2023-04-27T11:17:01;101929.25;;;7.84;64.79
53647;BME280;39550;52.230;5.194;2023-04-27T11:19:26;101963.66;;;8.14;63.60
53647;BME280;39550;52.230;5.194;2023-04-27T11:22:02;101957.88;;;8.19;62.86
53647;BME280;39550;52.230;5.194;2023-04-27T11:24:27;101932.69;;;8.09;64.43
53647;BME280;39550;52.230;5.194;2023-04-27T11:26:53;101950.81;;;8.14;63.99
53647;BME280;39550;52.230;5.194;2023-04-27T11:29:18;101827.72;;;7.44;63.97
53647;BME280;39550;52.230;5.194;2023-04-27T11:31:45;101902.25;;;7.96;62.46
53647;BME280;39550;52.230;5.194;2023-04-27T11:34:18;101907.53;;;7.99;63.04
53647;BME280;39550;52.230;5.194;2023-04-27T11:36:44;101860.66;;;7.80;63.04
53647;BME280;39550;52.230;5.194;2023-04-27T11:39:20;101887.09;;;8.02;62.85
53647;BME280;39550;52.230;5.194;2023-04-27T11:41:46;101937.88;;;8.35;63.25
53647;BME280;39550;52.230;5.194;2023-04-27T11:44:12;101871.91;;;8.08;63.03
53647;BME280;39550;52.230;5.194;2023-04-27T11:46:38;101834.34;;;7.86;61.53
53647;BME280;39550;52.230;5.194;2023-04-27T11:49:06;101909.50;;;8.32;62.59
53647;BME280;39550;52.230;5.194;2023-04-27T11:51:35;101947.34;;;8.60;62.25
53647;BME280;39550;52.230;5.194;2023-04-27T11:54:04;101861.84;;;8.14;61.89
53647;BME280;39550;52.230;5.194;2023-04-27T11:56:38;101940.72;;;8.67;62.96
53647;BME280;39550;52.230;5.194;2023-04-27T11:59:03;101918.19;;;8.60;63.46
53647;BME280;39550;52.230;5.194;2023-04-27T12:01:32;101852.59;;;8.19;63.13
53647;BME280;39550;52.230;5.194;2023-04-27T12:04:00;101938.28;;;8.72;61.52
53647;BME280;39550;52.230;5.194;2023-04-27T12:06:27;101883.34;;;8.42;60.87
53647;BME280;39550;52.230;5.194;2023-04-27T12:08:54;101875.91;;;8.50;60.73
53647;BME280;39550;52.230;5.194;2023-04-27T12:11:21;101870.13;;;8.56;60.01
53647;BME280;39550;52.230;5.194;2023-04-27T12:13:46;101905.44;;;9.17;55.03
53647;BME280;39550;52.230;5.194;2023-04-27T12:16:15;101859.25;;;9.20;53.84
53647;BME280;39550;52.230;5.194;2023-04-27T12:18:40;101842.25;;;9.26;52.81
53647;BME280;39550;52.230;5.194;2023-04-27T12:21:06;101913.09;;;10.04;52.77
53647;BME280;39550;52.230;5.194;2023-04-27T12:23:32;101889.69;;;9.95;51.99
53647;BME280;39550;52.230;5.194;2023-04-27T12:25:58;101841.00;;;9.72;52.79
53647;BME280;39550;52.230;5.194;2023-04-27T12:28:23;101850.84;;;9.87;54.15
53647;BME280;39550;52.230;5.194;2023-04-27T12:30:49;101885.47;;;10.30;51.71
53647;BME280;39550;52.230;5.194;2023-04-27T12:33:14;101914.53;;;10.58;52.16
53647;BME280;39550;52.230;5.194;2023-04-27T12:35:40;101825.59;;;10.05;51.40
53647;BME280;39550;52.230;5.194;2023-04-27T12:38:06;101748.84;;;9.59;51.54
53647;BME280;39550;52.230;5.194;2023-04-27T12:40:32;101743.81;;;9.63;51.59
53647;BME280;39550;52.230;5.194;2023-04-27T12:42:57;101857.34;;;10.38;50.89
53647;BME280;39550;52.230;5.194;2023-04-27T12:45:23;101855.00;;;10.47;50.46
53647;BME280;39550;52.230;5.194;2023-04-27T12:47:51;101791.56;;;10.19;49.77
53647;BME280;39550;52.230;5.194;2023-04-27T12:50:18;101820.44;;;10.39;49.33
53647;BME280;39550;52.230;5.194;2023-04-27T12:52:44;101849.69;;;10.76;48.89
53647;BME280;39550;52.230;5.194;2023-04-27T12:55:09;101895.31;;;11.18;47.91
53647;BME280;39550;52.230;5.194;2023-04-27T12:57:35;101907.66;;;11.32;47.34
53647;BME280;39550;52.230;5.194;2023-04-27T13:00:00;101871.47;;;11.29;47.68
53647;BME280;39550;52.230;5.194;2023-04-27T13:02:26;101807.13;;;10.95;47.71